createdAt,value
2023-02-13T00:01:58.910Z,6.57
2023-02-13T00:04:25.635Z,7.07
2023-02-13T00:06:52.475Z,6.10
2023-02-13T00:09:19.222Z,5.97
2023-02-13T00:11:45.964Z,6.22
2023-02-13T00:14:14.145Z,5.40
2023-02-13T00:16:41.111Z,6.93
2023-02-13T00:19:08.017Z,6.22
2023-02-13T00:21:34.718Z,5.65
2023-02-13T00:24:01.454Z,6.80
2023-02-13T00:26:28.214Z,5.70
2023-02-13T00:28:57.076Z,5.50
2023-02-13T00:31:25.285Z,5.40
2023-02-13T00:33:52.133Z,6.03
2023-02-13T00:36:20.887Z,5.72
2023-02-13T00:38:48.340Z,6.25
2023-02-13T00:41:15.960Z,6.60
2023-02-13T00:43:42.746Z,6.30
2023-02-13T00:46:09.767Z,5.50
2023-02-13T00:48:38.266Z,5.40
2023-02-13T00:51:06.098Z,6.82
2023-02-13T00:53:33.946Z,5.82
2023-02-13T00:56:00.702Z,5.97
2023-02-13T00:58:27.563Z,5.90
2023-02-13T01:00:55.557Z,7.05
2023-02-13T01:03:23.286Z,6.20
2023-02-13T01:05:52.462Z,6.38
2023-02-13T01:08:20.598Z,5.63
2023-02-13T01:10:48.514Z,5.35
2023-02-13T01:13:16.926Z,5.75
2023-02-13T01:15:43.732Z,6.10
2023-02-13T01:18:12.997Z,6.88
2023-02-13T01:20:39.888Z,6.18
2023-02-13T01:23:08.005Z,5.78
2023-02-13T01:25:34.757Z,6.07
2023-02-13T01:28:01.556Z,6.05
2023-02-13T01:30:28.486Z,6.03
2023-02-13T01:32:55.202Z,6.72
2023-02-13T01:35:21.988Z,6.18
2023-02-13T01:37:48.777Z,5.90
2023-02-13T01:40:16.916Z,5.90
2023-02-13T01:42:43.915Z,6.70
2023-02-13T01:45:23.378Z,6.35
2023-02-13T01:47:53.941Z,6.22
2023-02-13T01:50:25.478Z,6.40
2023-02-13T01:52:56.079Z,5.78
2023-02-13T01:55:25.619Z,5.72
2023-02-13T01:57:55.857Z,6.50
2023-02-13T02:00:23.076Z,6.55
2023-02-13T02:02:55.347Z,6.20
2023-02-13T02:05:27.011Z,6.57
2023-02-13T02:07:54.601Z,5.80
2023-02-13T02:10:21.665Z,6.32
2023-02-13T02:12:53.532Z,6.85
2023-02-13T02:15:20.760Z,6.07
2023-02-13T02:17:47.558Z,6.10
2023-02-13T02:20:25.292Z,5.90
2023-02-13T02:23:16.832Z,6.18
2023-02-13T02:25:59.081Z,6.15
2023-02-13T02:28:52.158Z,6.20
2023-02-13T02:32:02.194Z,5.95
2023-02-13T02:34:42.429Z,5.78
2023-02-13T02:37:31.079Z,5.72
2023-02-13T02:40:18.930Z,5.97
2023-02-13T02:43:05.787Z,5.78
2023-02-13T02:45:39.683Z,5.80
2023-02-13T02:48:14.132Z,6.32
2023-02-13T02:50:44.980Z,6.03
2023-02-13T02:53:23.852Z,5.45
2023-02-13T02:55:55.604Z,6.68
2023-02-13T02:58:28.729Z,5.55
2023-02-13T03:00:58.896Z,5.65
2023-02-13T03:03:28.910Z,5.47
2023-02-13T03:05:56.452Z,6.97
2023-02-13T03:08:23.404Z,6.15
2023-02-13T03:10:50.177Z,6.80
2023-02-13T03:13:31.321Z,6.90
2023-02-13T03:16:00.300Z,5.95
2023-02-13T03:18:31.542Z,6.07
2023-02-13T03:21:09.371Z,6.82
2023-02-13T03:23:46.106Z,7.10
2023-02-13T03:26:30.081Z,6.45
2023-02-13T03:29:05.692Z,6.85
2023-02-13T03:31:39.453Z,6.07
2023-02-13T03:34:11.656Z,5.80
2023-02-13T03:36:46.540Z,5.57
2023-02-13T03:39:20.377Z,6.00
2023-02-13T03:41:52.439Z,6.63
2023-02-13T03:44:25.300Z,6.20
2023-02-13T03:46:55.295Z,5.43
2023-02-13T03:49:27.821Z,6.15
2023-02-13T03:51:58.608Z,6.82
2023-02-13T03:54:30.984Z,6.13
2023-02-13T03:56:57.744Z,5.32
2023-02-13T03:59:29.009Z,5.60
2023-02-13T04:02:01.463Z,5.65
2023-02-13T04:04:38.811Z,5.38
2023-02-13T04:07:08.844Z,6.18
2023-02-13T04:09:38.272Z,5.40
2023-02-13T04:12:12.866Z,5.57
2023-02-13T04:14:45.985Z,6.50
2023-02-13T04:17:17.639Z,5.50
2023-02-13T04:19:45.672Z,5.70
2023-02-13T04:22:13.165Z,6.20
2023-02-13T04:24:39.965Z,6.03
2023-02-13T04:27:06.706Z,6.38
2023-02-13T04:29:33.436Z,5.82
2023-02-13T04:32:00.224Z,5.63
2023-02-13T04:34:26.941Z,5.10
2023-02-13T04:36:55.066Z,7.30
2023-02-13T04:39:21.797Z,6.57
2023-02-13T04:41:48.519Z,5.63
2023-02-13T04:44:15.192Z,5.25
2023-02-13T04:46:41.891Z,5.35
2023-02-13T04:49:09.762Z,6.13
2023-02-13T04:51:36.526Z,6.55
2023-02-13T04:54:04.788Z,5.70
2023-02-13T04:56:31.490Z,5.95
2023-02-13T04:58:58.192Z,6.45
2023-02-13T05:01:24.973Z,6.82
2023-02-13T05:03:52.157Z,5.63
2023-02-13T05:06:18.914Z,6.30
2023-02-13T05:08:45.641Z,6.55
2023-02-13T05:11:13.692Z,5.13
2023-02-13T05:13:40.413Z,6.07
2023-02-13T05:16:07.347Z,6.15
2023-02-13T05:18:34.086Z,6.03
2023-02-13T05:21:00.972Z,4.95
2023-02-13T05:23:27.712Z,4.47
2023-02-13T05:25:54.424Z,5.65
2023-02-13T05:28:24.606Z,5.00
2023-02-13T05:30:51.539Z,5.53
2023-02-13T05:33:18.328Z,4.93
2023-02-13T05:35:45.151Z,5.57
2023-02-13T05:38:11.860Z,5.60
2023-02-13T05:40:38.563Z,6.00
2023-02-13T05:43:05.259Z,5.68
2023-02-13T05:45:33.331Z,5.22
2023-02-13T05:48:00.245Z,5.47
2023-02-13T05:50:27.112Z,4.55
2023-02-13T05:52:53.860Z,5.80
2023-02-13T05:55:21.142Z,5.22
2023-02-13T05:57:48.053Z,6.43
2023-02-13T06:00:16.195Z,5.60
2023-02-13T06:02:44.322Z,5.40
2023-02-13T06:05:11.071Z,4.93
2023-02-13T06:07:37.776Z,5.43
2023-02-13T06:10:05.216Z,4.85
2023-02-13T06:12:31.901Z,5.85
2023-02-13T06:14:58.620Z,6.70
2023-02-13T06:17:25.379Z,5.40
2023-02-13T06:19:53.531Z,5.53
2023-02-13T06:22:20.260Z,4.88
2023-02-13T06:24:46.926Z,4.63
2023-02-13T06:27:13.654Z,4.75
2023-02-13T06:29:40.376Z,4.10
2023-02-13T06:32:07.097Z,4.55
2023-02-13T06:34:33.833Z,5.20
2023-02-13T06:37:01.876Z,4.68
2023-02-13T06:39:28.613Z,5.22
2023-02-13T06:41:55.345Z,5.78
2023-02-13T06:44:22.081Z,6.18
2023-02-13T06:46:48.813Z,6.18
2023-02-13T06:49:15.524Z,5.60
2023-02-13T06:51:42.260Z,6.18
2023-02-13T06:54:10.313Z,5.68
2023-02-13T06:56:37.017Z,5.78
2023-02-13T06:59:03.740Z,5.72
2023-02-13T07:01:30.456Z,6.90
2023-02-13T07:03:57.149Z,5.80
2023-02-13T07:06:23.868Z,6.32
2023-02-13T07:08:50.574Z,5.13
2023-02-13T07:11:19.126Z,5.57
2023-02-13T07:13:46.006Z,4.65
2023-02-13T07:16:12.786Z,6.07
2023-02-13T07:18:39.583Z,5.80
2023-02-13T07:21:06.952Z,5.57
2023-02-13T07:23:33.987Z,4.93
2023-02-13T07:26:01.054Z,5.28
2023-02-13T07:28:29.791Z,5.40
2023-02-13T07:30:57.365Z,5.90
2023-02-13T07:33:24.307Z,5.60
2023-02-13T07:35:52.080Z,4.90
2023-02-13T07:38:19.220Z,4.95
2023-02-13T07:40:46.088Z,5.60
2023-02-13T07:43:13.419Z,5.70
2023-02-13T07:45:41.527Z,5.38
2023-02-13T07:48:08.283Z,4.47
2023-02-13T07:50:34.972Z,5.60
2023-02-13T07:53:02.536Z,5.25
2023-02-13T07:55:30.193Z,4.18
2023-02-13T07:57:57.239Z,5.00
2023-02-13T08:00:24.073Z,4.93
2023-02-13T08:02:52.099Z,4.68
2023-02-13T08:05:18.806Z,5.22
2023-02-13T08:07:45.526Z,4.57
2023-02-13T08:10:13.465Z,4.93
2023-02-13T08:12:40.362Z,4.88
2023-02-13T08:15:09.564Z,4.57
2023-02-13T08:17:36.270Z,6.15
2023-02-13T08:20:05.481Z,5.13
2023-02-13T08:22:32.195Z,5.70
2023-02-13T08:24:58.888Z,5.75
2023-02-13T08:27:25.643Z,6.22
2023-02-13T08:29:52.319Z,5.68
2023-02-13T08:32:19.122Z,5.65
2023-02-13T08:34:45.925Z,6.45
2023-02-13T08:37:14.002Z,6.10
2023-02-13T08:39:40.874Z,5.55
2023-02-13T08:42:07.687Z,7.18
2023-02-13T08:44:34.630Z,5.70
2023-02-13T08:47:01.290Z,6.63
2023-02-13T08:49:28.051Z,6.68
2023-02-13T08:51:54.783Z,8.07
2023-02-13T08:54:22.962Z,7.53
2023-02-13T08:56:49.653Z,6.22
2023-02-13T08:59:16.375Z,6.35
2023-02-13T09:01:43.160Z,6.20
2023-02-13T09:04:10.189Z,6.50
2023-02-13T09:06:37.064Z,6.72
2023-02-13T09:09:05.331Z,6.80
2023-02-13T09:11:33.814Z,6.32
2023-02-13T09:14:00.747Z,6.20
2023-02-13T09:16:27.587Z,6.63
2023-02-13T09:18:54.293Z,6.97
2023-02-13T09:21:22.621Z,5.85
2023-02-13T09:23:50.070Z,6.30
2023-02-13T09:26:19.623Z,7.00
2023-02-13T09:28:48.842Z,6.30
2023-02-13T09:31:17.928Z,5.28
2023-02-13T09:33:46.165Z,5.72
2023-02-13T09:36:15.194Z,5.85
2023-02-13T09:38:42.336Z,6.57
2023-02-13T09:41:13.913Z,6.22
2023-02-13T09:43:46.500Z,6.60
2023-02-13T09:46:18.624Z,5.72
2023-02-13T09:48:50.225Z,6.80
2023-02-13T09:51:20.187Z,5.80
2023-02-13T09:53:53.138Z,6.47
2023-02-13T09:56:27.701Z,5.70
2023-02-13T09:58:58.832Z,6.30
2023-02-13T10:01:31.623Z,5.22
2023-02-13T10:04:15.966Z,5.43
2023-02-13T10:09:16.717Z,5.63
2023-02-13T10:12:00.727Z,6.57
2023-02-13T10:14:32.909Z,5.03
2023-02-13T10:17:07.346Z,5.65
2023-02-13T10:19:40.160Z,6.28
2023-02-13T10:22:12.960Z,6.85
2023-02-13T10:24:46.466Z,5.18
2023-02-13T10:27:21.836Z,6.00
2023-02-13T10:29:53.168Z,6.15
2023-02-13T10:32:28.986Z,5.60
2023-02-13T10:35:00.958Z,5.07
2023-02-13T10:37:28.770Z,5.00
2023-02-13T10:39:55.727Z,5.50
2023-02-13T10:42:27.421Z,6.00
2023-02-13T10:45:08.905Z,6.10
2023-02-13T10:47:50.559Z,6.57
2023-02-13T10:50:23.388Z,6.03
2023-02-13T10:53:07.954Z,6.40
2023-02-13T10:56:08.094Z,6.10
2023-02-13T10:58:48.182Z,6.13
2023-02-13T11:01:19.464Z,5.72
2023-02-13T11:03:49.712Z,7.45
2023-02-13T11:06:18.644Z,7.13
2023-02-13T11:08:47.718Z,6.93
2023-02-13T11:11:31.089Z,5.65
2023-02-13T11:14:16.353Z,6.60
2023-02-13T11:16:54.199Z,6.63
2023-02-13T11:19:26.813Z,6.13
2023-02-13T11:21:57.509Z,5.68
2023-02-13T11:24:26.981Z,6.43
2023-02-13T11:26:58.494Z,6.68
2023-02-13T11:29:27.729Z,6.82
2023-02-13T11:32:18.949Z,6.07
2023-02-13T11:34:48.245Z,5.95
2023-02-13T11:37:21.665Z,6.53
2023-02-13T11:39:51.487Z,5.80
2023-02-13T11:42:25.166Z,5.65
2023-02-13T11:44:54.842Z,6.82
2023-02-13T11:47:39.363Z,6.43
2023-02-13T11:50:22.372Z,6.72
2023-02-13T11:52:56.210Z,6.25
2023-02-13T11:55:29.694Z,7.35
2023-02-13T11:57:58.531Z,7.95
2023-02-13T12:00:35.369Z,6.68
2023-02-13T12:03:02.151Z,7.38
2023-02-13T12:05:30.361Z,7.88
2023-02-13T12:08:00.804Z,6.78
2023-02-13T12:10:29.203Z,7.30
2023-02-13T12:12:58.009Z,6.78
2023-02-13T12:15:28.252Z,8.70
2023-02-13T12:18:04.630Z,8.60
2023-02-13T12:20:40.737Z,8.98
2023-02-13T12:23:17.308Z,7.18
2023-02-13T12:25:53.881Z,7.10
2023-02-13T12:28:25.528Z,8.38
2023-02-13T12:31:18.170Z,8.00
2023-02-13T12:34:09.384Z,8.43
2023-02-13T12:36:46.871Z,7.90
2023-02-13T12:39:24.746Z,8.07
2023-02-13T12:42:09.890Z,8.15
2023-02-13T12:45:02.720Z,8.88
2023-02-13T12:47:59.941Z,9.38
2023-02-13T12:50:52.445Z,8.85
2023-02-13T12:53:41.991Z,8.43
2023-02-13T12:56:22.539Z,10.60
2023-02-13T12:59:00.223Z,9.88
2023-02-13T13:01:49.515Z,10.02
2023-02-13T13:04:23.467Z,8.63
2023-02-13T13:07:09.943Z,7.60
2023-02-13T13:09:53.024Z,8.63
2023-02-13T13:12:35.253Z,7.30
2023-02-13T13:15:09.343Z,7.35
2023-02-13T13:20:32.725Z,7.25
2023-02-13T13:23:05.472Z,7.20
2023-02-13T13:25:41.272Z,8.10
2023-02-13T13:28:14.498Z,8.18
2023-02-13T13:30:42.631Z,8.20
2023-02-13T13:33:15.282Z,7.82
2023-02-13T13:35:44.961Z,9.00
2023-02-13T13:38:14.939Z,8.32
2023-02-13T13:40:50.718Z,8.13
2023-02-13T13:43:22.618Z,7.22
2023-02-13T13:45:58.890Z,7.68
2023-02-13T13:48:43.196Z,8.23
2023-02-13T13:54:18.675Z,6.97
2023-02-13T13:57:08.899Z,10.20
2023-02-13T14:00:23.428Z,10.35
2023-02-13T14:02:51.336Z,9.53
2023-02-13T14:05:22.887Z,9.90
2023-02-13T14:07:51.762Z,9.75
2023-02-13T14:10:55.137Z,9.23
2023-02-13T14:13:33.195Z,9.35
2023-02-13T14:16:00.398Z,10.70
2023-02-13T14:18:28.653Z,9.65
2023-02-13T14:20:57.995Z,8.75
2023-02-13T14:23:35.879Z,10.55
2023-02-13T14:26:18.664Z,11.02
2023-02-13T14:29:13.244Z,10.48
2023-02-13T14:31:42.509Z,9.75
2023-02-13T14:34:20.323Z,11.30
2023-02-13T14:36:49.369Z,11.10
2023-02-13T14:39:25.547Z,11.90
2023-02-13T14:42:00.138Z,10.50
2023-02-13T14:44:33.754Z,9.88
2023-02-13T14:47:03.877Z,9.52
2023-02-13T14:49:33.733Z,10.27
2023-02-13T14:52:03.996Z,8.90
2023-02-13T14:54:34.591Z,12.55
2023-02-13T14:57:07.494Z,10.50
2023-02-13T14:59:39.744Z,10.35
2023-02-13T15:02:17.053Z,11.05
2023-02-13T15:04:46.688Z,9.73
2023-02-13T15:07:17.785Z,9.63
2023-02-13T15:09:50.412Z,9.63
2023-02-13T15:12:28.264Z,8.35
2023-02-13T15:14:56.562Z,9.70
2023-02-13T15:17:26.810Z,8.50
2023-02-13T15:19:55.720Z,10.43
2023-02-13T15:22:31.154Z,8.55
2023-02-13T15:24:58.723Z,8.80
2023-02-13T15:27:27.364Z,7.97
2023-02-13T15:29:58.110Z,9.80
2023-02-13T15:32:31.185Z,10.25
2023-02-13T15:34:57.904Z,9.85
2023-02-13T15:37:28.915Z,9.07
2023-02-13T15:39:55.877Z,10.82
2023-02-13T15:42:22.713Z,11.57
2023-02-13T15:44:52.866Z,10.65
2023-02-13T15:47:26.794Z,13.70
2023-02-13T15:49:53.648Z,11.85
2023-02-13T15:52:27.557Z,10.30
2023-02-13T15:54:55.530Z,9.98
2023-02-13T15:57:24.634Z,10.52
2023-02-13T15:59:52.771Z,13.38
2023-02-13T16:02:22.537Z,12.15
2023-02-13T16:04:52.959Z,32.33
2023-02-13T16:07:20.198Z,31.88
2023-02-13T16:09:47.786Z,14.50
2023-02-13T16:12:20.722Z,22.38
2023-02-13T16:14:53.092Z,29.75
2023-02-13T16:17:29.013Z,19.10
2023-02-13T16:20:01.608Z,40.88
2023-02-13T16:22:33.035Z,21.98
2023-02-13T16:25:16.645Z,17.83
2023-02-13T16:27:45.586Z,18.52
2023-02-13T16:30:33.631Z,33.25
2023-02-13T16:33:20.255Z,21.40
2023-02-13T16:35:48.685Z,22.20
2023-02-13T16:38:31.646Z,29.50
2023-02-13T16:41:00.403Z,16.20
2023-02-13T16:43:38.985Z,20.17
2023-02-13T16:46:26.259Z,16.98
2023-02-13T16:49:29.263Z,21.17
2023-02-13T16:52:00.275Z,11.95
2023-02-13T16:54:37.124Z,11.80
2023-02-13T16:57:06.838Z,10.32
2023-02-13T16:59:49.501Z,9.95
2023-02-13T17:02:18.997Z,9.55
2023-02-13T17:04:49.592Z,12.20
2023-02-13T17:07:20.287Z,10.85
2023-02-13T17:09:53.062Z,10.30
2023-02-13T17:12:20.566Z,9.80
2023-02-13T17:14:47.330Z,11.45
2023-02-13T17:17:18.317Z,12.90
2023-02-13T17:19:45.631Z,10.65
2023-02-13T17:22:32.886Z,10.93
2023-02-13T17:25:00.764Z,12.45
2023-02-13T17:27:27.721Z,11.50
2023-02-13T17:29:54.428Z,11.73
2023-02-13T17:32:23.451Z,10.98
2023-02-13T17:34:50.327Z,12.23
2023-02-13T17:37:21.031Z,12.88
2023-02-13T17:39:48.301Z,11.00
2023-02-13T17:42:21.436Z,12.38
2023-02-13T17:44:48.885Z,12.95
2023-02-13T17:47:16.000Z,12.30
2023-02-13T17:49:42.723Z,11.50
2023-02-13T17:52:15.087Z,13.23
2023-02-13T17:54:43.481Z,12.15
2023-02-13T17:57:11.192Z,12.48
2023-02-13T17:59:38.073Z,13.30
2023-02-13T18:02:10.203Z,18.35
2023-02-13T18:04:36.925Z,19.35
2023-02-13T18:07:03.671Z,16.70
2023-02-13T18:09:30.488Z,17.60
2023-02-13T18:12:05.387Z,15.75
2023-02-13T18:14:33.944Z,14.15
2023-02-13T18:17:00.874Z,18.45
2023-02-13T18:19:27.732Z,12.82
2023-02-13T18:21:54.485Z,18.23
2023-02-13T18:24:21.221Z,14.18
2023-02-13T18:26:47.935Z,13.00
2023-02-13T18:29:15.945Z,12.65
2023-02-13T18:31:42.759Z,14.40
2023-02-13T18:34:09.493Z,13.02
2023-02-13T18:36:36.245Z,11.65
2023-02-13T18:39:03.570Z,13.00
2023-02-13T18:41:30.321Z,12.18
2023-02-13T18:43:57.113Z,13.35
2023-02-13T18:46:25.290Z,13.00
2023-02-13T18:48:52.474Z,12.23
2023-02-13T18:51:19.216Z,12.50
2023-02-13T18:53:46.142Z,12.23
2023-02-13T18:56:13.044Z,12.73
2023-02-13T18:58:39.937Z,13.48
2023-02-13T19:01:07.774Z,13.02
2023-02-13T19:03:36.422Z,13.85
2023-02-13T19:06:04.863Z,14.15
2023-02-13T19:08:32.512Z,13.68
2023-02-13T19:11:00.092Z,14.35
2023-02-13T19:13:26.905Z,12.80
2023-02-13T19:15:53.672Z,13.85
2023-02-13T19:18:20.416Z,12.93
2023-02-13T19:20:48.515Z,13.23
2023-02-13T19:23:15.233Z,13.68
2023-02-13T19:25:41.962Z,14.10
2023-02-13T19:28:08.700Z,14.25
2023-02-13T19:30:35.984Z,16.42
2023-02-13T19:33:04.140Z,15.13
2023-02-13T19:35:31.036Z,12.10
2023-02-13T19:37:59.095Z,14.30
2023-02-13T19:40:25.819Z,12.50
2023-02-13T19:42:52.554Z,14.48
2023-02-13T19:45:19.509Z,13.65
2023-02-13T19:47:46.227Z,12.55
2023-02-13T19:50:13.025Z,14.20
2023-02-13T19:52:39.790Z,13.52
2023-02-13T19:55:08.352Z,13.88
2023-02-13T19:57:35.358Z,12.68
2023-02-13T20:00:02.154Z,13.57
2023-02-13T20:02:28.926Z,13.55
2023-02-13T20:04:55.677Z,15.80
2023-02-13T20:07:22.495Z,12.88
2023-02-13T20:09:49.455Z,13.63
2023-02-13T20:12:17.528Z,14.85
2023-02-13T20:14:44.415Z,13.85
2023-02-13T20:17:11.120Z,13.10
2023-02-13T20:19:38.544Z,15.07
2023-02-13T20:22:05.273Z,13.85
2023-02-13T20:24:32.300Z,12.95
2023-02-13T20:26:59.105Z,13.70
2023-02-13T20:29:27.188Z,13.52
2023-02-13T20:31:54.134Z,12.90
2023-02-13T20:34:20.956Z,13.55
2023-02-13T20:36:47.831Z,15.00
2023-02-13T20:39:16.288Z,15.05
2023-02-13T20:41:43.044Z,13.48
2023-02-13T20:44:11.670Z,13.45
2023-02-13T20:46:40.104Z,13.75
2023-02-13T20:49:07.527Z,11.75
2023-02-13T20:51:35.101Z,14.23
2023-02-13T20:54:02.001Z,13.63
2023-02-13T20:56:28.901Z,13.05
2023-02-13T20:58:57.273Z,14.30
2023-02-13T21:01:25.408Z,14.18
2023-02-13T21:03:54.598Z,13.68
2023-02-13T21:06:22.614Z,14.70
2023-02-13T21:08:49.956Z,14.35
2023-02-13T21:11:17.622Z,14.60
2023-02-13T21:13:44.504Z,14.07
2023-02-13T21:16:14.066Z,12.25
2023-02-13T21:18:42.016Z,14.27
2023-02-13T21:21:11.430Z,14.90
2023-02-13T21:23:38.527Z,12.60
2023-02-13T21:26:08.238Z,14.63
2023-02-13T21:28:35.765Z,14.45
2023-02-13T21:31:06.233Z,12.45
2023-02-13T21:33:33.262Z,13.75
2023-02-13T21:36:01.326Z,13.95
2023-02-13T21:38:30.081Z,12.65
2023-02-13T21:41:03.964Z,12.50
2023-02-13T21:43:30.755Z,12.77
2023-02-13T21:46:06.167Z,13.18
2023-02-13T21:48:32.982Z,13.25
2023-02-13T21:51:00.021Z,11.63
2023-02-13T21:53:26.867Z,11.23
2023-02-13T21:55:55.000Z,13.23
2023-02-13T21:58:21.747Z,13.38
2023-02-13T22:00:48.655Z,12.55
2023-02-13T22:03:15.466Z,13.93
2023-02-13T22:05:46.086Z,13.73
2023-02-13T22:08:12.797Z,13.18
2023-02-13T22:10:39.535Z,13.95
2023-02-13T22:13:07.634Z,12.55
2023-02-13T22:15:34.439Z,13.43
2023-02-13T22:18:01.132Z,11.85
2023-02-13T22:20:27.834Z,12.23
2023-02-13T22:22:54.693Z,13.00
2023-02-13T22:25:21.385Z,10.82
2023-02-13T22:27:48.638Z,12.57
2023-02-13T22:30:17.114Z,13.43
2023-02-13T22:32:43.902Z,11.70
2023-02-13T22:35:10.610Z,10.55
2023-02-13T22:37:37.637Z,10.75
2023-02-13T22:40:05.400Z,11.27
2023-02-13T22:42:32.172Z,10.35
2023-02-13T22:44:58.974Z,8.85
2023-02-13T22:47:27.579Z,8.77
2023-02-13T22:49:54.801Z,9.43
2023-02-13T22:52:21.497Z,8.90
2023-02-13T22:54:48.357Z,8.20
2023-02-13T22:57:15.139Z,9.65
2023-02-13T22:59:41.846Z,10.68
2023-02-13T23:02:08.680Z,10.48
2023-02-13T23:04:36.824Z,11.75
2023-02-13T23:07:03.613Z,12.25
2023-02-13T23:09:30.385Z,10.38
2023-02-13T23:11:57.128Z,8.48
2023-02-13T23:14:24.112Z,7.57
2023-02-13T23:16:51.260Z,9.57
2023-02-13T23:19:18.076Z,9.73
2023-02-13T23:21:46.190Z,9.65
2023-02-13T23:24:12.933Z,9.43
2023-02-13T23:26:39.650Z,10.23
2023-02-13T23:29:06.421Z,10.45
2023-02-13T23:31:33.280Z,9.90
2023-02-13T23:34:00.022Z,9.18
2023-02-13T23:36:26.944Z,8.80
2023-02-13T23:38:55.092Z,9.98
2023-02-13T23:41:21.832Z,9.35
2023-02-13T23:43:48.573Z,9.43
2023-02-13T23:46:15.370Z,11.00
2023-02-13T23:48:42.148Z,10.60
2023-02-13T23:51:08.919Z,11.50
2023-02-13T23:53:35.966Z,10.23
2023-02-13T23:56:04.582Z,10.48
2023-02-13T23:58:31.413Z,8.85
